Morning Charlotte — 3EMA2 — position and weather

sailwx.info

Track history (hours):
 
Tides and Currents Weather Stations Pressure Air Temp Water Temp Dewpoint Dewpoint Depression Visibility Wind Speed Wind Dir Waves Ship Positions

Morning Charlotte

Last reported at 2015-Mar-17 17:33 UTC. Time now 2015-Mar-27 10:14 UTC.
Position N 01°54' E 102°24'.
Warning: this ship's position is 9 days out of date.

Length 200 m; draft 9 m.

Type: Cargo ship. MMSI: 357275000.

Date/timePositionNaut miles runAvg speedWind from/ knotsBaromVisibWave heightAir tempDewpointWater temp
2015-Mar-17 17:33N 01°54' E 102°24'1918.9
2015-Mar-17 16:33N 01°46' E 102°41'7316.2
2015-Mar-17 12:05N 01°09' E 103°44'814.0
2015-Mar-17 11:32N 01°12' E 103°51'7 3.4
2015-Mar-17 09:32N 01°17' E 103°56'0 0.1
2015-Mar-17 07:32N 01°17' E 103°56'0 0.0
2015-Mar-17 05:32N 01°17' E 103°56'0 0.0
2015-Mar-17 03:32N 01°17' E 103°56'0 0.1
2015-Mar-17 01:08N 01°17' E 103°56'0 0.0
2015-Mar-16 23:33N 01°17' E 103°56'0 0.0
2015-Mar-16 22:33N 01°17' E 103°56'0 0.0
2015-Mar-16 21:32N 01°17' E 103°56'0 0.0
2015-Mar-16 20:29N 01°17' E 103°56'0 0.0
2015-Mar-16 19:23N 01°17' E 103°56'0 0.0
2015-Mar-16 18:33N 01°17' E 103°56'7 6.8
2015-Mar-16 17:32N 01°17' E 104°03'10 9.8
2015-Mar-16 16:33N 01°17' E 104°12'  
2015-Mar-13 00:33N 22°26' E 119°42'1817.6
2015-Mar-12 23:32N 22°44' E 119°42'1717.6
2015-Mar-12 22:33N 23°01' E 119°46'51014.8
2015-Mar-11 12:07N 31°05' E 122°48'712.7
2015-Mar-11 11:33N 31°05' E 122°39'1110.7
2015-Mar-11 10:32N 31°06' E 122°26'1313.1
2015-Mar-11 09:33N 31°10' E 122°12'1312.7
2015-Mar-11 08:33N 31°15' E 121°59'1110.5
2015-Mar-11 07:34N 31°18' E 121°47'5 5.1
2015-Mar-11 06:31N 31°19' E 121°41'0 0.0
2015-Mar-11 05:31N 31°19' E 121°41'0 0.0
2015-Mar-11 04:25N 31°19' E 121°41'0 0.0
2015-Mar-11 03:31N 31°19' E 121°41'0 0.0
2015-Mar-11 02:31N 31°19' E 121°41'0 0.0
2015-Mar-11 01:31N 31°19' E 121°41'0 0.0
2015-Mar-11 00:31N 31°19' E 121°41'0 0.0
2015-Mar-10 23:31N 31°19' E 121°41'0 0.0
2015-Mar-10 22:31N 31°19' E 121°41'0 0.0
2015-Mar-10 21:31N 31°19' E 121°41'0 0.0
2015-Mar-10 20:31N 31°19' E 121°41'0 0.0
2015-Mar-10 19:31N 31°19' E 121°41'0 0.2
2015-Mar-10 18:33N 31°19' E 121°41'7 7.4
2015-Mar-10 17:33N 31°17' E 121°49'1111.0
2015-Mar-10 16:33N 31°15' E 122°02'10 9.9
2015-Mar-10 15:33N 31°10' E 122°12'1010.4
2015-Mar-10 14:33N 31°06' E 122°23'7 7.4
2015-Mar-10 13:33N 31°09' E 122°31'5 4.6
2015-Mar-10 12:33N 31°13' E 122°32'7 6.1
2015-Mar-10 11:28N 31°20' E 122°35'1 0.1
2015-Mar-10 03:32N 31°19' E 122°36'1 0.3
2015-Mar-10 01:33N 31°19' E 122°36'3 2.5
2015-Mar-10 00:31N 31°20' E 122°33'12 0.6
2015-Mar-09 04:25N 31°14' E 122°45'3 3.1
2015-Mar-09 03:22N 31°16' E 122°49'3 2.5
2015-Mar-09 02:12N 31°18' E 122°51'1 1.6
2015-Mar-09 01:20N 31°19' E 122°51'2 1.7
2015-Mar-09 00:14N 31°17' E 122°50'  
Track history (hours):
 
Tides and Currents Weather Stations Pressure Air Temp Water Temp Dewpoint Dewpoint Depression Visibility Wind Speed Wind Dir Waves Ship Positions

Morning Charlotte

Last reported at 2015-Mar-17 17:33 UTC. Time now 2015-Mar-27 10:14 UTC.
Position N 01°54' E 102°24'.
Warning: this ship's position is 9 days out of date.

Length 200 m; draft 9 m.

Type: Cargo ship. MMSI: 357275000.

Date/timePositionNaut miles runAvg speedWind from/ knotsBaromVisibWave heightAir tempDewpointWater temp
2015-Mar-17 17:33N 01°54' E 102°24'1918.9
2015-Mar-17 16:33N 01°46' E 102°41'7316.2
2015-Mar-17 12:05N 01°09' E 103°44'814.0
2015-Mar-17 11:32N 01°12' E 103°51'7 3.4
2015-Mar-17 09:32N 01°17' E 103°56'0 0.1
2015-Mar-17 07:32N 01°17' E 103°56'0 0.0
2015-Mar-17 05:32N 01°17' E 103°56'0 0.0
2015-Mar-17 03:32N 01°17' E 103°56'0 0.1
2015-Mar-17 01:08N 01°17' E 103°56'0 0.0
2015-Mar-16 23:33N 01°17' E 103°56'0 0.0
2015-Mar-16 22:33N 01°17' E 103°56'0 0.0
2015-Mar-16 21:32N 01°17' E 103°56'0 0.0
2015-Mar-16 20:29N 01°17' E 103°56'0 0.0
2015-Mar-16 19:23N 01°17' E 103°56'0 0.0
2015-Mar-16 18:33N 01°17' E 103°56'7 6.8
2015-Mar-16 17:32N 01°17' E 104°03'10 9.8
2015-Mar-16 16:33N 01°17' E 104°12'  
2015-Mar-13 00:33N 22°26' E 119°42'1817.6
2015-Mar-12 23:32N 22°44' E 119°42'1717.6
2015-Mar-12 22:33N 23°01' E 119°46'51014.8
2015-Mar-11 12:07N 31°05' E 122°48'712.7
2015-Mar-11 11:33N 31°05' E 122°39'1110.7
2015-Mar-11 10:32N 31°06' E 122°26'1313.1
2015-Mar-11 09:33N 31°10' E 122°12'1312.7
2015-Mar-11 08:33N 31°15' E 121°59'1110.5
2015-Mar-11 07:34N 31°18' E 121°47'5 5.1
2015-Mar-11 06:31N 31°19' E 121°41'0 0.0
2015-Mar-11 05:31N 31°19' E 121°41'0 0.0
2015-Mar-11 04:25N 31°19' E 121°41'0 0.0
2015-Mar-11 03:31N 31°19' E 121°41'0 0.0
2015-Mar-11 02:31N 31°19' E 121°41'0 0.0
2015-Mar-11 01:31N 31°19' E 121°41'0 0.0
2015-Mar-11 00:31N 31°19' E 121°41'0 0.0
2015-Mar-10 23:31N 31°19' E 121°41'0 0.0
2015-Mar-10 22:31N 31°19' E 121°41'0 0.0
2015-Mar-10 21:31N 31°19' E 121°41'0 0.0
2015-Mar-10 20:31N 31°19' E 121°41'0 0.0
2015-Mar-10 19:31N 31°19' E 121°41'0 0.2
2015-Mar-10 18:33N 31°19' E 121°41'7 7.4
2015-Mar-10 17:33N 31°17' E 121°49'1111.0
2015-Mar-10 16:33N 31°15' E 122°02'10 9.9
2015-Mar-10 15:33N 31°10' E 122°12'1010.4
2015-Mar-10 14:33N 31°06' E 122°23'7 7.4
2015-Mar-10 13:33N 31°09' E 122°31'5 4.6
2015-Mar-10 12:33N 31°13' E 122°32'7 6.1
2015-Mar-10 11:28N 31°20' E 122°35'1 0.1
2015-Mar-10 03:32N 31°19' E 122°36'1 0.3
2015-Mar-10 01:33N 31°19' E 122°36'3 2.5
2015-Mar-10 00:31N 31°20' E 122°33'12 0.6
2015-Mar-09 04:25N 31°14' E 122°45'3 3.1
2015-Mar-09 03:22N 31°16' E 122°49'3 2.5
2015-Mar-09 02:12N 31°18' E 122°51'1 1.6
2015-Mar-09 01:20N 31°19' E 122°51'2 1.7
2015-Mar-09 00:14N 31°17' E 122°50'  

Dump ship's entire track history